sensor_id;sensor_type;location;lat;lon;timestamp;P1;durP1;ratioP1;P2;durP2;ratioP2
78298;SDS011;67556;55.656;12.590;2024-03-06T00:01:22;9.48;;;6.00;;
78298;SDS011;67556;55.656;12.590;2024-03-06T00:03:51;9.68;;;5.85;;
78298;SDS011;67556;55.656;12.590;2024-03-06T00:06:24;9.18;;;5.50;;
78298;SDS011;67556;55.656;12.590;2024-03-06T00:08:51;7.90;;;5.57;;
78298;SDS011;67556;55.656;12.590;2024-03-06T00:11:18;8.52;;;5.68;;
78298;SDS011;67556;55.656;12.590;2024-03-06T00:13:46;8.73;;;5.60;;
78298;SDS011;67556;55.656;12.590;2024-03-06T00:16:15;7.75;;;5.55;;
78298;SDS011;67556;55.656;12.590;2024-03-06T00:18:50;7.57;;;5.13;;
78298;SDS011;67556;55.656;12.590;2024-03-06T00:21:17;7.18;;;5.03;;
78298;SDS011;67556;55.656;12.590;2024-03-06T00:23:44;8.75;;;5.82;;
78298;SDS011;67556;55.656;12.590;2024-03-06T00:26:12;9.35;;;5.55;;
78298;SDS011;67556;55.656;12.590;2024-03-06T00:28:39;9.27;;;5.93;;
78298;SDS011;67556;55.656;12.590;2024-03-06T00:31:07;9.55;;;5.25;;
78298;SDS011;67556;55.656;12.590;2024-03-06T00:33:34;8.13;;;5.90;;
78298;SDS011;67556;55.656;12.590;2024-03-06T00:36:03;7.32;;;5.57;;
78298;SDS011;67556;55.656;12.590;2024-03-06T00:38:31;9.20;;;5.13;;
78298;SDS011;67556;55.656;12.590;2024-03-06T00:40:58;8.35;;;5.55;;
78298;SDS011;67556;55.656;12.590;2024-03-06T00:43:24;8.32;;;5.10;;
78298;SDS011;67556;55.656;12.590;2024-03-06T00:45:51;7.45;;;5.32;;
78298;SDS011;67556;55.656;12.590;2024-03-06T00:48:20;7.40;;;5.10;;
78298;SDS011;67556;55.656;12.590;2024-03-06T00:50:47;8.27;;;5.40;;
78298;SDS011;67556;55.656;12.590;2024-03-06T00:53:22;8.90;;;5.45;;
78298;SDS011;67556;55.656;12.590;2024-03-06T00:55:50;6.22;;;4.97;;
78298;SDS011;67556;55.656;12.590;2024-03-06T00:58:24;8.05;;;4.88;;
78298;SDS011;67556;55.656;12.590;2024-03-06T01:00:50;7.85;;;5.60;;
78298;SDS011;67556;55.656;12.590;2024-03-06T01:03:35;7.68;;;5.47;;
78298;SDS011;67556;55.656;12.590;2024-03-06T01:06:03;9.13;;;6.03;;
78298;SDS011;67556;55.656;12.590;2024-03-06T01:08:40;6.38;;;4.80;;
78298;SDS011;67556;55.656;12.590;2024-03-06T01:11:06;8.00;;;5.47;;
78298;SDS011;67556;55.656;12.590;2024-03-06T01:13:51;8.20;;;5.32;;
78298;SDS011;67556;55.656;12.590;2024-03-06T01:16:20;8.40;;;5.20;;
78298;SDS011;67556;55.656;12.590;2024-03-06T01:18:48;7.63;;;4.90;;
78298;SDS011;67556;55.656;12.590;2024-03-06T01:21:20;7.18;;;4.78;;
78298;SDS011;67556;55.656;12.590;2024-03-06T01:24:06;7.78;;;5.28;;
78298;SDS011;67556;55.656;12.590;2024-03-06T01:26:33;6.95;;;5.20;;
78298;SDS011;67556;55.656;12.590;2024-03-06T01:29:02;8.90;;;5.85;;
78298;SDS011;67556;55.656;12.590;2024-03-06T01:31:41;9.52;;;5.93;;
78298;SDS011;67556;55.656;12.590;2024-03-06T01:34:09;6.90;;;5.20;;
78298;SDS011;67556;55.656;12.590;2024-03-06T01:36:43;9.18;;;5.28;;
78298;SDS011;67556;55.656;12.590;2024-03-06T01:39:11;9.82;;;5.97;;
78298;SDS011;67556;55.656;12.590;2024-03-06T01:41:47;7.50;;;5.18;;
78298;SDS011;67556;55.656;12.590;2024-03-06T01:44:16;8.43;;;5.25;;
78298;SDS011;67556;55.656;12.590;2024-03-06T01:46:50;9.07;;;5.85;;
78298;SDS011;67556;55.656;12.590;2024-03-06T01:49:17;11.27;;;5.90;;
78298;SDS011;67556;55.656;12.590;2024-03-06T01:51:45;9.38;;;5.72;;
78298;SDS011;67556;55.656;12.590;2024-03-06T01:54:15;9.18;;;5.57;;
78298;SDS011;67556;55.656;12.590;2024-03-06T01:56:44;9.20;;;5.78;;
78298;SDS011;67556;55.656;12.590;2024-03-06T01:59:13;7.60;;;5.63;;
78298;SDS011;67556;55.656;12.590;2024-03-06T02:01:54;10.07;;;5.65;;
78298;SDS011;67556;55.656;12.590;2024-03-06T02:04:23;11.73;;;6.38;;
78298;SDS011;67556;55.656;12.590;2024-03-06T02:07:03;9.10;;;5.80;;
78298;SDS011;67556;55.656;12.590;2024-03-06T02:09:45;8.65;;;5.47;;
78298;SDS011;67556;55.656;12.590;2024-03-06T02:12:30;8.45;;;5.38;;
78298;SDS011;67556;55.656;12.590;2024-03-06T02:14:57;10.98;;;6.22;;
78298;SDS011;67556;55.656;12.590;2024-03-06T02:17:42;10.82;;;6.63;;
78298;SDS011;67556;55.656;12.590;2024-03-06T02:20:09;11.50;;;6.40;;
78298;SDS011;67556;55.656;12.590;2024-03-06T02:22:58;11.45;;;6.43;;
78298;SDS011;67556;55.656;12.590;2024-03-06T02:25:24;12.77;;;6.63;;
78298;SDS011;67556;55.656;12.590;2024-03-06T02:28:16;11.20;;;6.30;;
78298;SDS011;67556;55.656;12.590;2024-03-06T02:31:01;13.35;;;7.18;;
78298;SDS011;67556;55.656;12.590;2024-03-06T02:33:41;12.45;;;6.97;;
78298;SDS011;67556;55.656;12.590;2024-03-06T02:36:26;11.75;;;7.15;;
78298;SDS011;67556;55.656;12.590;2024-03-06T02:38:54;12.80;;;7.50;;
78298;SDS011;67556;55.656;12.590;2024-03-06T02:41:21;16.15;;;7.80;;
78298;SDS011;67556;55.656;12.590;2024-03-06T02:43:48;17.67;;;7.90;;
78298;SDS011;67556;55.656;12.590;2024-03-06T02:46:24;17.67;;;7.95;;
78298;SDS011;67556;55.656;12.590;2024-03-06T02:48:53;18.08;;;8.50;;
78298;SDS011;67556;55.656;12.590;2024-03-06T02:51:27;15.80;;;8.68;;
78298;SDS011;67556;55.656;12.590;2024-03-06T02:53:56;14.90;;;8.10;;
78298;SDS011;67556;55.656;12.590;2024-03-06T02:56:22;15.88;;;8.15;;
78298;SDS011;67556;55.656;12.590;2024-03-06T02:58:50;17.50;;;8.52;;
78298;SDS011;67556;55.656;12.590;2024-03-06T03:01:16;21.17;;;8.77;;
78298;SDS011;67556;55.656;12.590;2024-03-06T03:03:45;23.58;;;8.27;;
78298;SDS011;67556;55.656;12.590;2024-03-06T03:06:13;14.65;;;8.13;;
78298;SDS011;67556;55.656;12.590;2024-03-06T03:08:41;20.83;;;9.25;;
78298;SDS011;67556;55.656;12.590;2024-03-06T03:11:14;20.60;;;8.43;;
78298;SDS011;67556;55.656;12.590;2024-03-06T03:13:40;17.08;;;8.43;;
78298;SDS011;67556;55.656;12.590;2024-03-06T03:16:15;18.95;;;9.25;;
78298;SDS011;67556;55.656;12.590;2024-03-06T03:18:43;16.10;;;8.13;;
78298;SDS011;67556;55.656;12.590;2024-03-06T03:21:11;16.10;;;9.02;;
78298;SDS011;67556;55.656;12.590;2024-03-06T03:23:46;14.65;;;8.10;;
78298;SDS011;67556;55.656;12.590;2024-03-06T03:26:12;14.15;;;8.45;;
78298;SDS011;67556;55.656;12.590;2024-03-06T03:28:42;16.83;;;8.60;;
78298;SDS011;67556;55.656;12.590;2024-03-06T03:31:11;17.55;;;9.93;;
78298;SDS011;67556;55.656;12.590;2024-03-06T03:33:39;16.45;;;7.93;;
78298;SDS011;67556;55.656;12.590;2024-03-06T03:36:08;17.13;;;8.35;;
78298;SDS011;67556;55.656;12.590;2024-03-06T03:38:35;16.65;;;8.32;;
78298;SDS011;67556;55.656;12.590;2024-03-06T03:41:17;17.80;;;8.48;;
78298;SDS011;67556;55.656;12.590;2024-03-06T03:43:46;17.33;;;8.10;;
78298;SDS011;67556;55.656;12.590;2024-03-06T03:46:16;17.65;;;8.20;;
78298;SDS011;67556;55.656;12.590;2024-03-06T03:48:45;17.20;;;8.52;;
78298;SDS011;67556;55.656;12.590;2024-03-06T03:51:13;19.48;;;8.73;;
78298;SDS011;67556;55.656;12.590;2024-03-06T03:53:41;17.63;;;8.27;;
78298;SDS011;67556;55.656;12.590;2024-03-06T03:56:08;15.10;;;7.75;;
78298;SDS011;67556;55.656;12.590;2024-03-06T03:58:36;19.90;;;9.75;;
78298;SDS011;67556;55.656;12.590;2024-03-06T04:01:07;18.38;;;8.75;;
78298;SDS011;67556;55.656;12.590;2024-03-06T04:03:36;15.73;;;8.50;;
78298;SDS011;67556;55.656;12.590;2024-03-06T04:06:03;21.35;;;8.93;;
78298;SDS011;67556;55.656;12.590;2024-03-06T04:08:32;19.58;;;8.50;;
78298;SDS011;67556;55.656;12.590;2024-03-06T04:10:58;16.35;;;7.90;;
78298;SDS011;67556;55.656;12.590;2024-03-06T04:13:28;19.88;;;8.45;;
78298;SDS011;67556;55.656;12.590;2024-03-06T04:15:54;15.02;;;8.25;;
78298;SDS011;67556;55.656;12.590;2024-03-06T04:18:23;16.42;;;8.77;;
78298;SDS011;67556;55.656;12.590;2024-03-06T04:20:51;18.70;;;8.60;;
78298;SDS011;67556;55.656;12.590;2024-03-06T04:23:17;17.48;;;9.30;;
78298;SDS011;67556;55.656;12.590;2024-03-06T04:25:45;16.27;;;8.70;;
78298;SDS011;67556;55.656;12.590;2024-03-06T04:28:13;16.42;;;9.27;;
78298;SDS011;67556;55.656;12.590;2024-03-06T04:30:40;22.33;;;9.70;;
78298;SDS011;67556;55.656;12.590;2024-03-06T04:33:09;16.98;;;9.30;;
78298;SDS011;67556;55.656;12.590;2024-03-06T04:35:46;19.35;;;9.10;;
78298;SDS011;67556;55.656;12.590;2024-03-06T04:38:14;17.55;;;8.68;;
78298;SDS011;67556;55.656;12.590;2024-03-06T04:40:41;15.65;;;8.60;;
78298;SDS011;67556;55.656;12.590;2024-03-06T04:43:10;19.05;;;8.90;;
78298;SDS011;67556;55.656;12.590;2024-03-06T04:45:39;19.42;;;9.43;;
78298;SDS011;67556;55.656;12.590;2024-03-06T04:48:06;17.77;;;8.23;;
78298;SDS011;67556;55.656;12.590;2024-03-06T04:50:40;21.38;;;8.68;;
78298;SDS011;67556;55.656;12.590;2024-03-06T04:53:20;15.52;;;8.40;;
78298;SDS011;67556;55.656;12.590;2024-03-06T04:55:48;17.55;;;9.27;;
78298;SDS011;67556;55.656;12.590;2024-03-06T04:58:14;20.08;;;9.18;;
78298;SDS011;67556;55.656;12.590;2024-03-06T05:00:41;19.15;;;9.52;;
78298;SDS011;67556;55.656;12.590;2024-03-06T05:03:08;24.35;;;10.05;;
78298;SDS011;67556;55.656;12.590;2024-03-06T05:05:38;21.38;;;9.30;;
78298;SDS011;67556;55.656;12.590;2024-03-06T05:08:06;17.80;;;8.65;;
78298;SDS011;67556;55.656;12.590;2024-03-06T05:10:34;19.75;;;9.90;;
78298;SDS011;67556;55.656;12.590;2024-03-06T05:13:02;21.30;;;9.10;;
78298;SDS011;67556;55.656;12.590;2024-03-06T05:15:30;16.40;;;8.90;;
78298;SDS011;67556;55.656;12.590;2024-03-06T05:17:56;17.23;;;9.18;;
78298;SDS011;67556;55.656;12.590;2024-03-06T05:20:38;21.65;;;9.65;;
78298;SDS011;67556;55.656;12.590;2024-03-06T05:23:05;17.55;;;9.40;;
78298;SDS011;67556;55.656;12.590;2024-03-06T05:25:34;21.33;;;8.98;;
78298;SDS011;67556;55.656;12.590;2024-03-06T05:28:06;22.50;;;10.50;;
78298;SDS011;67556;55.656;12.590;2024-03-06T05:30:44;24.40;;;10.02;;
78298;SDS011;67556;55.656;12.590;2024-03-06T05:33:11;19.00;;;9.15;;
78298;SDS011;67556;55.656;12.590;2024-03-06T05:35:52;20.30;;;9.40;;
78298;SDS011;67556;55.656;12.590;2024-03-06T05:38:33;21.13;;;9.35;;
78298;SDS011;67556;55.656;12.590;2024-03-06T05:41:00;19.58;;;9.20;;
78298;SDS011;67556;55.656;12.590;2024-03-06T05:43:33;20.55;;;9.45;;
78298;SDS011;67556;55.656;12.590;2024-03-06T05:46:01;17.60;;;9.20;;
78298;SDS011;67556;55.656;12.590;2024-03-06T05:48:40;15.70;;;8.25;;
78298;SDS011;67556;55.656;12.590;2024-03-06T05:51:07;19.50;;;8.63;;
78298;SDS011;67556;55.656;12.590;2024-03-06T05:53:53;23.40;;;9.85;;
78298;SDS011;67556;55.656;12.590;2024-03-06T05:56:30;15.23;;;8.65;;
78298;SDS011;67556;55.656;12.590;2024-03-06T05:59:04;19.60;;;9.23;;
78298;SDS011;67556;55.656;12.590;2024-03-06T06:01:35;19.67;;;9.35;;
78298;SDS011;67556;55.656;12.590;2024-03-06T06:04:01;17.92;;;8.82;;
78298;SDS011;67556;55.656;12.590;2024-03-06T06:06:29;16.52;;;8.77;;
78298;SDS011;67556;55.656;12.590;2024-03-06T06:08:58;18.70;;;8.88;;
78298;SDS011;67556;55.656;12.590;2024-03-06T06:11:27;16.13;;;8.05;;
78298;SDS011;67556;55.656;12.590;2024-03-06T06:13:59;16.73;;;7.97;;
78298;SDS011;67556;55.656;12.590;2024-03-06T06:16:34;18.80;;;8.82;;
78298;SDS011;67556;55.656;12.590;2024-03-06T06:19:00;14.63;;;7.88;;
78298;SDS011;67556;55.656;12.590;2024-03-06T06:21:28;12.77;;;7.40;;
78298;SDS011;67556;55.656;12.590;2024-03-06T06:23:55;13.07;;;7.65;;
78298;SDS011;67556;55.656;12.590;2024-03-06T06:26:22;14.07;;;7.50;;
78298;SDS011;67556;55.656;12.590;2024-03-06T06:28:54;16.30;;;7.57;;
78298;SDS011;67556;55.656;12.590;2024-03-06T06:31:24;14.90;;;7.47;;
78298;SDS011;67556;55.656;12.590;2024-03-06T06:33:51;14.85;;;7.97;;
78298;SDS011;67556;55.656;12.590;2024-03-06T06:36:25;13.90;;;6.53;;
78298;SDS011;67556;55.656;12.590;2024-03-06T06:38:54;13.05;;;6.43;;
78298;SDS011;67556;55.656;12.590;2024-03-06T06:41:21;9.65;;;6.38;;
78298;SDS011;67556;55.656;12.590;2024-03-06T06:43:50;11.55;;;5.95;;
78298;SDS011;67556;55.656;12.590;2024-03-06T06:46:17;11.27;;;6.03;;
78298;SDS011;67556;55.656;12.590;2024-03-06T06:48:53;10.63;;;6.20;;
78298;SDS011;67556;55.656;12.590;2024-03-06T06:51:24;12.18;;;5.68;;
78298;SDS011;67556;55.656;12.590;2024-03-06T06:54:00;10.13;;;5.95;;
78298;SDS011;67556;55.656;12.590;2024-03-06T06:56:29;10.90;;;5.32;;
78298;SDS011;67556;55.656;12.590;2024-03-06T06:58:56;9.30;;;5.28;;
78298;SDS011;67556;55.656;12.590;2024-03-06T07:01:25;9.30;;;5.05;;
78298;SDS011;67556;55.656;12.590;2024-03-06T07:04:01;8.75;;;5.18;;
78298;SDS011;67556;55.656;12.590;2024-03-06T07:06:28;8.27;;;5.15;;
78298;SDS011;67556;55.656;12.590;2024-03-06T07:08:55;7.85;;;4.75;;
78298;SDS011;67556;55.656;12.590;2024-03-06T07:11:22;6.97;;;4.53;;
78298;SDS011;67556;55.656;12.590;2024-03-06T07:13:50;7.80;;;5.03;;
78298;SDS011;67556;55.656;12.590;2024-03-06T07:16:17;9.18;;;5.13;;
78298;SDS011;67556;55.656;12.590;2024-03-06T07:18:46;7.63;;;4.70;;
78298;SDS011;67556;55.656;12.590;2024-03-06T07:21:14;6.35;;;4.65;;
78298;SDS011;67556;55.656;12.590;2024-03-06T07:23:56;6.65;;;4.22;;
78298;SDS011;67556;55.656;12.590;2024-03-06T07:26:23;6.85;;;5.22;;
78298;SDS011;67556;55.656;12.590;2024-03-06T07:28:53;7.53;;;5.13;;
78298;SDS011;67556;55.656;12.590;2024-03-06T07:31:20;8.75;;;5.28;;
78298;SDS011;67556;55.656;12.590;2024-03-06T07:33:47;9.52;;;5.00;;
78298;SDS011;67556;55.656;12.590;2024-03-06T07:36:15;11.98;;;5.53;;
78298;SDS011;67556;55.656;12.590;2024-03-06T07:38:43;5.65;;;3.95;;
78298;SDS011;67556;55.656;12.590;2024-03-06T07:41:12;9.38;;;4.97;;
78298;SDS011;67556;55.656;12.590;2024-03-06T07:43:41;10.75;;;5.90;;
78298;SDS011;67556;55.656;12.590;2024-03-06T07:46:09;10.57;;;6.97;;
78298;SDS011;67556;55.656;12.590;2024-03-06T07:48:43;9.63;;;5.88;;
78298;SDS011;67556;55.656;12.590;2024-03-06T07:51:10;10.77;;;6.20;;
78298;SDS011;67556;55.656;12.590;2024-03-06T07:53:39;8.63;;;5.38;;
78298;SDS011;67556;55.656;12.590;2024-03-06T07:56:06;9.95;;;5.90;;
78298;SDS011;67556;55.656;12.590;2024-03-06T07:58:35;9.23;;;5.97;;
78298;SDS011;67556;55.656;12.590;2024-03-06T08:01:02;9.80;;;5.43;;
78298;SDS011;67556;55.656;12.590;2024-03-06T08:03:30;8.90;;;5.60;;
78298;SDS011;67556;55.656;12.590;2024-03-06T08:05:58;13.30;;;5.32;;
78298;SDS011;67556;55.656;12.590;2024-03-06T08:08:26;8.20;;;4.95;;
78298;SDS011;67556;55.656;12.590;2024-03-06T08:10:55;9.93;;;5.03;;
78298;SDS011;67556;55.656;12.590;2024-03-06T08:13:22;6.90;;;4.35;;
78298;SDS011;67556;55.656;12.590;2024-03-06T08:15:49;7.35;;;4.78;;
78298;SDS011;67556;55.656;12.590;2024-03-06T08:18:17;6.45;;;4.72;;
78298;SDS011;67556;55.656;12.590;2024-03-06T08:20:45;6.43;;;4.22;;
78298;SDS011;67556;55.656;12.590;2024-03-06T08:23:12;7.00;;;3.63;;
78298;SDS011;67556;55.656;12.590;2024-03-06T08:25:40;6.57;;;3.65;;
78298;SDS011;67556;55.656;12.590;2024-03-06T08:28:08;6.38;;;4.18;;
78298;SDS011;67556;55.656;12.590;2024-03-06T08:30:36;4.82;;;3.88;;
78298;SDS011;67556;55.656;12.590;2024-03-06T08:33:03;6.50;;;3.90;;
78298;SDS011;67556;55.656;12.590;2024-03-06T08:35:31;5.88;;;3.50;;
78298;SDS011;67556;55.656;12.590;2024-03-06T08:37:59;6.80;;;5.13;;
78298;SDS011;67556;55.656;12.590;2024-03-06T08:40:27;9.02;;;3.47;;
78298;SDS011;67556;55.656;12.590;2024-03-06T08:42:55;6.47;;;4.18;;
78298;SDS011;67556;55.656;12.590;2024-03-06T08:45:24;6.20;;;3.95;;
78298;SDS011;67556;55.656;12.590;2024-03-06T08:47:53;5.30;;;3.88;;
78298;SDS011;67556;55.656;12.590;2024-03-06T08:50:22;5.22;;;3.38;;
78298;SDS011;67556;55.656;12.590;2024-03-06T08:52:50;4.97;;;3.55;;
78298;SDS011;67556;55.656;12.590;2024-03-06T08:55:17;5.47;;;3.33;;
78298;SDS011;67556;55.656;12.590;2024-03-06T08:57:44;6.15;;;3.33;;
78298;SDS011;67556;55.656;12.590;2024-03-06T09:00:11;6.63;;;3.70;;
78298;SDS011;67556;55.656;12.590;2024-03-06T09:02:46;5.72;;;3.20;;
78298;SDS011;67556;55.656;12.590;2024-03-06T09:05:20;4.45;;;3.45;;
78298;SDS011;67556;55.656;12.590;2024-03-06T09:07:49;4.97;;;3.75;;
78298;SDS011;67556;55.656;12.590;2024-03-06T09:10:15;5.85;;;3.72;;
78298;SDS011;67556;55.656;12.590;2024-03-06T09:12:44;4.95;;;3.58;;
78298;SDS011;67556;55.656;12.590;2024-03-06T09:15:10;5.45;;;3.97;;
78298;SDS011;67556;55.656;12.590;2024-03-06T09:17:39;5.22;;;3.35;;
78298;SDS011;67556;55.656;12.590;2024-03-06T09:20:10;3.88;;;3.28;;
78298;SDS011;67556;55.656;12.590;2024-03-06T09:22:45;4.72;;;3.30;;
78298;SDS011;67556;55.656;12.590;2024-03-06T09:25:14;6.70;;;3.50;;
78298;SDS011;67556;55.656;12.590;2024-03-06T09:27:47;5.72;;;3.17;;
78298;SDS011;67556;55.656;12.590;2024-03-06T09:30:20;5.38;;;3.63;;
78298;SDS011;67556;55.656;12.590;2024-03-06T09:32:48;5.30;;;3.70;;
78298;SDS011;67556;55.656;12.590;2024-03-06T09:35:18;5.85;;;3.35;;
78298;SDS011;67556;55.656;12.590;2024-03-06T09:37:46;4.35;;;3.28;;
78298;SDS011;67556;55.656;12.590;2024-03-06T09:40:19;4.93;;;3.50;;
78298;SDS011;67556;55.656;12.590;2024-03-06T09:42:46;4.78;;;3.20;;
78298;SDS011;67556;55.656;12.590;2024-03-06T09:45:20;5.03;;;3.25;;
78298;SDS011;67556;55.656;12.590;2024-03-06T09:47:49;5.43;;;3.53;;
78298;SDS011;67556;55.656;12.590;2024-03-06T09:50:22;7.50;;;4.97;;
78298;SDS011;67556;55.656;12.590;2024-03-06T09:52:51;4.57;;;3.10;;
78298;SDS011;67556;55.656;12.590;2024-03-06T09:55:19;4.35;;;3.58;;
78298;SDS011;67556;55.656;12.590;2024-03-06T09:57:47;5.63;;;3.40;;
78298;SDS011;67556;55.656;12.590;2024-03-06T10:00:15;5.80;;;3.50;;
78298;SDS011;67556;55.656;12.590;2024-03-06T10:02:46;6.40;;;3.90;;
78298;SDS011;67556;55.656;12.590;2024-03-06T10:05:20;8.82;;;4.80;;
78298;SDS011;67556;55.656;12.590;2024-03-06T10:07:49;5.90;;;3.92;;
78298;SDS011;67556;55.656;12.590;2024-03-06T10:10:16;7.38;;;4.28;;
78298;SDS011;67556;55.656;12.590;2024-03-06T10:12:45;6.32;;;4.70;;
78298;SDS011;67556;55.656;12.590;2024-03-06T10:15:14;7.45;;;4.10;;
78298;SDS011;67556;55.656;12.590;2024-03-06T10:17:40;7.22;;;4.20;;
78298;SDS011;67556;55.656;12.590;2024-03-06T10:20:16;7.97;;;4.75;;
78298;SDS011;67556;55.656;12.590;2024-03-06T10:22:46;7.65;;;4.45;;
78298;SDS011;67556;55.656;12.590;2024-03-06T10:25:14;6.13;;;4.60;;
78298;SDS011;67556;55.656;12.590;2024-03-06T10:27:42;6.65;;;4.85;;
78298;SDS011;67556;55.656;12.590;2024-03-06T10:30:10;13.48;;;5.40;;
78298;SDS011;67556;55.656;12.590;2024-03-06T10:32:38;8.38;;;4.88;;
78298;SDS011;67556;55.656;12.590;2024-03-06T10:35:06;7.05;;;4.80;;
78298;SDS011;67556;55.656;12.590;2024-03-06T10:37:35;7.85;;;4.95;;
78298;SDS011;67556;55.656;12.590;2024-03-06T10:40:02;15.38;;;6.40;;
78298;SDS011;67556;55.656;12.590;2024-03-06T10:42:32;8.93;;;5.50;;
78298;SDS011;67556;55.656;12.590;2024-03-06T10:44:59;7.80;;;4.78;;
78298;SDS011;67556;55.656;12.590;2024-03-06T10:47:27;9.55;;;5.50;;
78298;SDS011;67556;55.656;12.590;2024-03-06T10:50:00;9.63;;;5.05;;
78298;SDS011;67556;55.656;12.590;2024-03-06T10:52:30;8.38;;;5.53;;
78298;SDS011;67556;55.656;12.590;2024-03-06T10:54:59;9.07;;;5.70;;
78298;SDS011;67556;55.656;12.590;2024-03-06T10:57:26;11.68;;;5.43;;
78298;SDS011;67556;55.656;12.590;2024-03-06T11:00:01;7.85;;;5.22;;
78298;SDS011;67556;55.656;12.590;2024-03-06T11:02:29;9.95;;;5.22;;
78298;SDS011;67556;55.656;12.590;2024-03-06T11:04:56;8.13;;;5.57;;
78298;SDS011;67556;55.656;12.590;2024-03-06T11:07:24;12.13;;;6.18;;
78298;SDS011;67556;55.656;12.590;2024-03-06T11:09:54;15.32;;;6.18;;
78298;SDS011;67556;55.656;12.590;2024-03-06T11:12:34;10.52;;;5.82;;
78298;SDS011;67556;55.656;12.590;2024-03-06T11:15:09;10.25;;;5.32;;
78298;SDS011;67556;55.656;12.590;2024-03-06T11:17:39;8.82;;;5.18;;
78298;SDS011;67556;55.656;12.590;2024-03-06T11:20:09;11.63;;;6.43;;
78298;SDS011;67556;55.656;12.590;2024-03-06T11:23:03;8.00;;;5.30;;
78298;SDS011;67556;55.656;12.590;2024-03-06T11:25:55;11.05;;;6.13;;
78298;SDS011;67556;55.656;12.590;2024-03-06T11:28:26;10.80;;;6.35;;
78298;SDS011;67556;55.656;12.590;2024-03-06T11:30:58;11.10;;;6.82;;
78298;SDS011;67556;55.656;12.590;2024-03-06T11:33:34;17.70;;;8.35;;
78298;SDS011;67556;55.656;12.590;2024-03-06T11:36:14;32.65;;;9.35;;
78298;SDS011;67556;55.656;12.590;2024-03-06T11:38:42;15.13;;;7.70;;
78298;SDS011;67556;55.656;12.590;2024-03-06T11:41:09;13.05;;;6.05;;
78298;SDS011;67556;55.656;12.590;2024-03-06T11:43:41;18.35;;;8.45;;
78298;SDS011;67556;55.656;12.590;2024-03-06T11:46:12;11.65;;;7.22;;
78298;SDS011;67556;55.656;12.590;2024-03-06T11:48:39;14.20;;;7.03;;
78298;SDS011;67556;55.656;12.590;2024-03-06T11:51:06;12.50;;;6.53;;
78298;SDS011;67556;55.656;12.590;2024-03-06T11:53:35;8.63;;;5.93;;
78298;SDS011;67556;55.656;12.590;2024-03-06T11:56:05;9.48;;;6.28;;
78298;SDS011;67556;55.656;12.590;2024-03-06T11:58:35;11.90;;;6.47;;
78298;SDS011;67556;55.656;12.590;2024-03-06T12:01:04;12.18;;;6.80;;
78298;SDS011;67556;55.656;12.590;2024-03-06T12:03:35;12.45;;;6.93;;
78298;SDS011;67556;55.656;12.590;2024-03-06T12:06:01;12.50;;;6.50;;
78298;SDS011;67556;55.656;12.590;2024-03-06T12:08:28;18.20;;;7.43;;
78298;SDS011;67556;55.656;12.590;2024-03-06T12:10:58;23.10;;;8.70;;
78298;SDS011;67556;55.656;12.590;2024-03-06T12:13:25;13.85;;;6.50;;
78298;SDS011;67556;55.656;12.590;2024-03-06T12:15:54;14.05;;;6.05;;
78298;SDS011;67556;55.656;12.590;2024-03-06T12:18:20;12.40;;;6.18;;
78298;SDS011;67556;55.656;12.590;2024-03-06T12:20:52;10.07;;;6.45;;
78298;SDS011;67556;55.656;12.590;2024-03-06T12:23:19;11.18;;;6.63;;
78298;SDS011;67556;55.656;12.590;2024-03-06T12:25:47;9.32;;;5.90;;
78298;SDS011;67556;55.656;12.590;2024-03-06T12:28:13;12.30;;;6.82;;
78298;SDS011;67556;55.656;12.590;2024-03-06T12:30:42;10.27;;;5.53;;
78298;SDS011;67556;55.656;12.590;2024-03-06T12:33:10;14.27;;;6.43;;
78298;SDS011;67556;55.656;12.590;2024-03-06T12:35:43;14.43;;;6.88;;
78298;SDS011;67556;55.656;12.590;2024-03-06T12:38:15;10.77;;;6.47;;
78298;SDS011;67556;55.656;12.590;2024-03-06T12:40:43;9.63;;;5.75;;
78298;SDS011;67556;55.656;12.590;2024-03-06T12:43:11;12.40;;;6.03;;
78298;SDS011;67556;55.656;12.590;2024-03-06T12:45:39;10.30;;;6.13;;
78298;SDS011;67556;55.656;12.590;2024-03-06T12:48:07;13.20;;;6.63;;
78298;SDS011;67556;55.656;12.590;2024-03-06T12:50:33;10.95;;;6.18;;
78298;SDS011;67556;55.656;12.590;2024-03-06T12:53:00;9.05;;;5.95;;
78298;SDS011;67556;55.656;12.590;2024-03-06T12:55:30;8.27;;;5.82;;
78298;SDS011;67556;55.656;12.590;2024-03-06T12:58:06;10.10;;;6.10;;
78298;SDS011;67556;55.656;12.590;2024-03-06T13:00:35;15.18;;;7.25;;
78298;SDS011;67556;55.656;12.590;2024-03-06T13:03:03;11.38;;;7.28;;
78298;SDS011;67556;55.656;12.590;2024-03-06T13:05:34;8.07;;;5.93;;
78298;SDS011;67556;55.656;12.590;2024-03-06T13:08:00;12.00;;;6.45;;
78298;SDS011;67556;55.656;12.590;2024-03-06T13:10:28;11.55;;;6.95;;
78298;SDS011;67556;55.656;12.590;2024-03-06T13:12:59;9.40;;;6.13;;
78298;SDS011;67556;55.656;12.590;2024-03-06T13:15:34;12.13;;;6.47;;
78298;SDS011;67556;55.656;12.590;2024-03-06T13:18:07;9.38;;;5.93;;
78298;SDS011;67556;55.656;12.590;2024-03-06T13:20:34;10.65;;;6.50;;
78298;SDS011;67556;55.656;12.590;2024-03-06T13:23:02;7.97;;;5.93;;
78298;SDS011;67556;55.656;12.590;2024-03-06T13:25:28;11.68;;;6.18;;
78298;SDS011;67556;55.656;12.590;2024-03-06T13:28:04;8.70;;;5.97;;
78298;SDS011;67556;55.656;12.590;2024-03-06T13:30:41;12.32;;;5.85;;
78298;SDS011;67556;55.656;12.590;2024-03-06T13:33:26;10.75;;;6.30;;
78298;SDS011;67556;55.656;12.590;2024-03-06T13:35:53;12.18;;;6.50;;
78298;SDS011;67556;55.656;12.590;2024-03-06T13:38:21;9.98;;;6.53;;
78298;SDS011;67556;55.656;12.590;2024-03-06T13:40:49;11.50;;;6.72;;
78298;SDS011;67556;55.656;12.590;2024-03-06T13:43:31;12.23;;;6.68;;
78298;SDS011;67556;55.656;12.590;2024-03-06T13:45:57;10.52;;;6.30;;
78298;SDS011;67556;55.656;12.590;2024-03-06T13:48:27;10.75;;;6.38;;
78298;SDS011;67556;55.656;12.590;2024-03-06T13:50:56;11.55;;;6.65;;
78298;SDS011;67556;55.656;12.590;2024-03-06T13:53:26;10.63;;;6.22;;
78298;SDS011;67556;55.656;12.590;2024-03-06T13:55:53;11.82;;;7.00;;
78298;SDS011;67556;55.656;12.590;2024-03-06T13:58:19;13.18;;;6.30;;
78298;SDS011;67556;55.656;12.590;2024-03-06T14:00:50;10.35;;;5.85;;
78298;SDS011;67556;55.656;12.590;2024-03-06T14:03:40;9.50;;;5.88;;
78298;SDS011;67556;55.656;12.590;2024-03-06T14:06:13;10.95;;;6.60;;
78298;SDS011;67556;55.656;12.590;2024-03-06T14:08:46;12.60;;;6.22;;
78298;SDS011;67556;55.656;12.590;2024-03-06T14:11:12;11.93;;;6.32;;
78298;SDS011;67556;55.656;12.590;2024-03-06T14:13:41;10.15;;;6.68;;
78298;SDS011;67556;55.656;12.590;2024-03-06T14:16:15;10.73;;;6.35;;
78298;SDS011;67556;55.656;12.590;2024-03-06T14:18:42;10.57;;;6.43;;
78298;SDS011;67556;55.656;12.590;2024-03-06T14:21:27;16.20;;;6.72;;
78298;SDS011;67556;55.656;12.590;2024-03-06T14:23:57;9.57;;;5.53;;
78298;SDS011;67556;55.656;12.590;2024-03-06T14:26:27;10.88;;;6.28;;
78298;SDS011;67556;55.656;12.590;2024-03-06T14:28:58;11.00;;;5.43;;
78298;SDS011;67556;55.656;12.590;2024-03-06T14:31:26;10.63;;;6.15;;
78298;SDS011;67556;55.656;12.590;2024-03-06T14:33:55;12.10;;;6.80;;
78298;SDS011;67556;55.656;12.590;2024-03-06T14:36:23;9.52;;;5.55;;
78298;SDS011;67556;55.656;12.590;2024-03-06T14:38:51;10.05;;;6.50;;
78298;SDS011;67556;55.656;12.590;2024-03-06T14:41:18;10.52;;;5.95;;
78298;SDS011;67556;55.656;12.590;2024-03-06T14:43:45;9.43;;;6.10;;
78298;SDS011;67556;55.656;12.590;2024-03-06T14:46:17;11.10;;;6.15;;